sensor_id;sensor_type;location;lat;lon;timestamp;P1;durP1;ratioP1;P2;durP2;ratioP2
86422;SDS011;77085;43.220;27.952;2024-03-08T00:00:14;33;;;33;;
86422;SDS011;77085;43.220;27.952;2024-03-08T00:00:34;34;;;34;;
86422;SDS011;77085;43.220;27.952;2024-03-08T00:00:53;33;;;33;;
86422;SDS011;77085;43.220;27.952;2024-03-08T00:01:12;34;;;34;;
86422;SDS011;77085;43.220;27.952;2024-03-08T00:01:32;32;;;32;;
86422;SDS011;77085;43.220;27.952;2024-03-08T00:01:51;32;;;32;;
86422;SDS011;77085;43.220;27.952;2024-03-08T00:02:11;31;;;31;;
86422;SDS011;77085;43.220;27.952;2024-03-08T00:02:30;32;;;32;;
86422;SDS011;77085;43.220;27.952;2024-03-08T00:02:50;33;;;33;;
86422;SDS011;77085;43.220;27.952;2024-03-08T00:03:09;32;;;32;;
86422;SDS011;77085;43.220;27.952;2024-03-08T00:03:28;33;;;33;;
86422;SDS011;77085;43.220;27.952;2024-03-08T00:03:47;34;;;34;;
86422;SDS011;77085;43.220;27.952;2024-03-08T00:04:07;35;;;35;;
86422;SDS011;77085;43.220;27.952;2024-03-08T00:04:27;34;;;34;;
86422;SDS011;77085;43.220;27.952;2024-03-08T00:04:47;35;;;35;;
86422;SDS011;77085;43.220;27.952;2024-03-08T00:05:07;35;;;35;;
86422;SDS011;77085;43.220;27.952;2024-03-08T00:05:27;34;;;34;;
86422;SDS011;77085;43.220;27.952;2024-03-08T00:05:47;34;;;34;;
86422;SDS011;77085;43.220;27.952;2024-03-08T00:06:06;36;;;36;;
86422;SDS011;77085;43.220;27.952;2024-03-08T00:06:26;34;;;34;;
86422;SDS011;77085;43.220;27.952;2024-03-08T00:06:45;33;;;33;;
86422;SDS011;77085;43.220;27.952;2024-03-08T00:07:05;33;;;33;;
86422;SDS011;77085;43.220;27.952;2024-03-08T00:07:24;34;;;34;;
86422;SDS011;77085;43.220;27.952;2024-03-08T00:07:44;34;;;34;;
86422;SDS011;77085;43.220;27.952;2024-03-08T00:08:03;33;;;33;;
86422;SDS011;77085;43.220;27.952;2024-03-08T00:08:23;34;;;34;;
86422;SDS011;77085;43.220;27.952;2024-03-08T00:08:44;32;;;32;;
86422;SDS011;77085;43.220;27.952;2024-03-08T00:09:03;31;;;31;;
86422;SDS011;77085;43.220;27.952;2024-03-08T00:09:23;32;;;32;;
86422;SDS011;77085;43.220;27.952;2024-03-08T00:09:42;31;;;31;;
86422;SDS011;77085;43.220;27.952;2024-03-08T00:10:03;33;;;33;;
86422;SDS011;77085;43.220;27.952;2024-03-08T00:10:23;32;;;32;;
86422;SDS011;77085;43.220;27.952;2024-03-08T00:10:42;32;;;32;;
86422;SDS011;77085;43.220;27.952;2024-03-08T00:11:02;33;;;33;;
86422;SDS011;77085;43.220;27.952;2024-03-08T00:11:21;32;;;32;;
86422;SDS011;77085;43.220;27.952;2024-03-08T00:11:41;32;;;32;;
86422;SDS011;77085;43.220;27.952;2024-03-08T00:12:00;32;;;32;;
86422;SDS011;77085;43.220;27.952;2024-03-08T00:12:20;34;;;34;;
86422;SDS011;77085;43.220;27.952;2024-03-08T00:12:40;32;;;32;;
86422;SDS011;77085;43.220;27.952;2024-03-08T00:13:00;32;;;32;;
86422;SDS011;77085;43.220;27.952;2024-03-08T00:13:19;33;;;33;;
86422;SDS011;77085;43.220;27.952;2024-03-08T00:13:39;32;;;32;;
86422;SDS011;77085;43.220;27.952;2024-03-08T00:13:58;33;;;33;;
86422;SDS011;77085;43.220;27.952;2024-03-08T00:14:18;33;;;33;;
86422;SDS011;77085;43.220;27.952;2024-03-08T00:14:37;32;;;32;;
86422;SDS011;77085;43.220;27.952;2024-03-08T00:14:57;32;;;32;;
86422;SDS011;77085;43.220;27.952;2024-03-08T00:15:17;33;;;33;;
86422;SDS011;77085;43.220;27.952;2024-03-08T00:15:36;33;;;33;;
86422;SDS011;77085;43.220;27.952;2024-03-08T00:15:56;33;;;33;;
86422;SDS011;77085;43.220;27.952;2024-03-08T00:16:15;33;;;33;;
86422;SDS011;77085;43.220;27.952;2024-03-08T00:16:35;33;;;33;;
86422;SDS011;77085;43.220;27.952;2024-03-08T00:16:54;33;;;33;;
86422;SDS011;77085;43.220;27.952;2024-03-08T00:17:14;33;;;33;;
86422;SDS011;77085;43.220;27.952;2024-03-08T00:17:33;32;;;32;;
86422;SDS011;77085;43.220;27.952;2024-03-08T00:17:53;32;;;32;;
86422;SDS011;77085;43.220;27.952;2024-03-08T00:18:12;32;;;32;;
86422;SDS011;77085;43.220;27.952;2024-03-08T00:18:32;32;;;32;;
86422;SDS011;77085;43.220;27.952;2024-03-08T00:18:52;33;;;33;;
86422;SDS011;77085;43.220;27.952;2024-03-08T00:19:11;32;;;32;;
86422;SDS011;77085;43.220;27.952;2024-03-08T00:19:30;33;;;33;;
86422;SDS011;77085;43.220;27.952;2024-03-08T00:19:50;32;;;32;;
86422;SDS011;77085;43.220;27.952;2024-03-08T00:20:10;33;;;33;;
86422;SDS011;77085;43.220;27.952;2024-03-08T00:20:30;32;;;32;;
86422;SDS011;77085;43.220;27.952;2024-03-08T00:20:49;32;;;32;;
86422;SDS011;77085;43.220;27.952;2024-03-08T00:21:08;34;;;34;;
86422;SDS011;77085;43.220;27.952;2024-03-08T00:21:27;33;;;33;;
86422;SDS011;77085;43.220;27.952;2024-03-08T00:21:47;31;;;31;;
86422;SDS011;77085;43.220;27.952;2024-03-08T00:22:06;33;;;33;;
86422;SDS011;77085;43.220;27.952;2024-03-08T00:22:25;33;;;33;;
86422;SDS011;77085;43.220;27.952;2024-03-08T00:22:45;32;;;32;;
86422;SDS011;77085;43.220;27.952;2024-03-08T00:23:05;33;;;33;;
86422;SDS011;77085;43.220;27.952;2024-03-08T00:23:25;33;;;33;;
86422;SDS011;77085;43.220;27.952;2024-03-08T00:23:44;33;;;33;;
86422;SDS011;77085;43.220;27.952;2024-03-08T00:24:04;33;;;33;;
86422;SDS011;77085;43.220;27.952;2024-03-08T00:24:24;34;;;34;;
86422;SDS011;77085;43.220;27.952;2024-03-08T00:24:43;33;;;33;;
86422;SDS011;77085;43.220;27.952;2024-03-08T00:25:05;32;;;32;;
86422;SDS011;77085;43.220;27.952;2024-03-08T00:25:25;32;;;32;;
86422;SDS011;77085;43.220;27.952;2024-03-08T00:25:45;33;;;33;;
86422;SDS011;77085;43.220;27.952;2024-03-08T00:26:04;32;;;32;;
86422;SDS011;77085;43.220;27.952;2024-03-08T00:26:23;32;;;32;;
86422;SDS011;77085;43.220;27.952;2024-03-08T00:26:43;32;;;32;;
86422;SDS011;77085;43.220;27.952;2024-03-08T00:27:02;33;;;33;;
86422;SDS011;77085;43.220;27.952;2024-03-08T00:27:22;32;;;32;;
86422;SDS011;77085;43.220;27.952;2024-03-08T00:27:42;34;;;34;;
86422;SDS011;77085;43.220;27.952;2024-03-08T00:28:01;34;;;34;;
86422;SDS011;77085;43.220;27.952;2024-03-08T00:28:20;33;;;33;;
86422;SDS011;77085;43.220;27.952;2024-03-08T00:28:40;33;;;33;;
86422;SDS011;77085;43.220;27.952;2024-03-08T00:28:59;35;;;35;;
86422;SDS011;77085;43.220;27.952;2024-03-08T00:29:19;33;;;33;;
86422;SDS011;77085;43.220;27.952;2024-03-08T00:29:38;35;;;35;;
86422;SDS011;77085;43.220;27.952;2024-03-08T00:29:57;32;;;32;;
86422;SDS011;77085;43.220;27.952;2024-03-08T00:30:17;33;;;33;;
86422;SDS011;77085;43.220;27.952;2024-03-08T00:30:37;34;;;34;;
86422;SDS011;77085;43.220;27.952;2024-03-08T00:30:56;34;;;34;;
86422;SDS011;77085;43.220;27.952;2024-03-08T00:31:16;32;;;32;;
86422;SDS011;77085;43.220;27.952;2024-03-08T00:31:35;33;;;33;;
86422;SDS011;77085;43.220;27.952;2024-03-08T00:31:54;34;;;34;;
86422;SDS011;77085;43.220;27.952;2024-03-08T00:32:14;33;;;33;;
86422;SDS011;77085;43.220;27.952;2024-03-08T00:32:33;34;;;34;;
86422;SDS011;77085;43.220;27.952;2024-03-08T00:32:52;33;;;33;;
86422;SDS011;77085;43.220;27.952;2024-03-08T00:33:12;36;;;36;;
86422;SDS011;77085;43.220;27.952;2024-03-08T00:33:31;35;;;35;;
86422;SDS011;77085;43.220;27.952;2024-03-08T00:33:50;34;;;34;;
86422;SDS011;77085;43.220;27.952;2024-03-08T00:34:10;33;;;33;;
86422;SDS011;77085;43.220;27.952;2024-03-08T00:34:29;33;;;33;;
86422;SDS011;77085;43.220;27.952;2024-03-08T00:34:49;34;;;34;;
86422;SDS011;77085;43.220;27.952;2024-03-08T00:35:09;34;;;34;;
86422;SDS011;77085;43.220;27.952;2024-03-08T00:35:28;35;;;35;;
86422;SDS011;77085;43.220;27.952;2024-03-08T00:35:47;34;;;34;;
86422;SDS011;77085;43.220;27.952;2024-03-08T00:36:07;35;;;35;;
86422;SDS011;77085;43.220;27.952;2024-03-08T00:36:27;35;;;35;;
86422;SDS011;77085;43.220;27.952;2024-03-08T00:36:46;35;;;35;;
86422;SDS011;77085;43.220;27.952;2024-03-08T00:37:06;34;;;34;;
86422;SDS011;77085;43.220;27.952;2024-03-08T00:37:25;33;;;33;;
86422;SDS011;77085;43.220;27.952;2024-03-08T00:37:45;33;;;33;;
86422;SDS011;77085;43.220;27.952;2024-03-08T00:38:04;34;;;34;;
86422;SDS011;77085;43.220;27.952;2024-03-08T00:38:23;32;;;32;;
86422;SDS011;77085;43.220;27.952;2024-03-08T00:38:43;32;;;32;;
86422;SDS011;77085;43.220;27.952;2024-03-08T00:39:02;32;;;32;;
86422;SDS011;77085;43.220;27.952;2024-03-08T00:39:21;32;;;32;;
86422;SDS011;77085;43.220;27.952;2024-03-08T00:39:41;32;;;32;;
86422;SDS011;77085;43.220;27.952;2024-03-08T00:40:00;32;;;32;;
86422;SDS011;77085;43.220;27.952;2024-03-08T00:40:20;33;;;33;;
86422;SDS011;77085;43.220;27.952;2024-03-08T00:40:39;33;;;33;;
86422;SDS011;77085;43.220;27.952;2024-03-08T00:40:58;34;;;34;;
86422;SDS011;77085;43.220;27.952;2024-03-08T00:41:18;36;;;36;;
86422;SDS011;77085;43.220;27.952;2024-03-08T00:41:37;35;;;35;;
86422;SDS011;77085;43.220;27.952;2024-03-08T00:41:57;34;;;34;;
86422;SDS011;77085;43.220;27.952;2024-03-08T00:42:16;35;;;35;;
86422;SDS011;77085;43.220;27.952;2024-03-08T00:42:35;34;;;34;;
86422;SDS011;77085;43.220;27.952;2024-03-08T00:42:55;34;;;34;;
86422;SDS011;77085;43.220;27.952;2024-03-08T00:43:14;35;;;35;;
86422;SDS011;77085;43.220;27.952;2024-03-08T00:43:33;33;;;33;;
86422;SDS011;77085;43.220;27.952;2024-03-08T00:43:53;34;;;34;;
86422;SDS011;77085;43.220;27.952;2024-03-08T00:44:12;33;;;33;;
86422;SDS011;77085;43.220;27.952;2024-03-08T00:44:32;33;;;33;;
86422;SDS011;77085;43.220;27.952;2024-03-08T00:44:51;33;;;33;;
86422;SDS011;77085;43.220;27.952;2024-03-08T00:45:11;34;;;34;;
86422;SDS011;77085;43.220;27.952;2024-03-08T00:45:30;35;;;35;;
86422;SDS011;77085;43.220;27.952;2024-03-08T00:45:50;34;;;34;;
86422;SDS011;77085;43.220;27.952;2024-03-08T00:46:09;33;;;33;;
86422;SDS011;77085;43.220;27.952;2024-03-08T00:46:29;35;;;35;;
86422;SDS011;77085;43.220;27.952;2024-03-08T00:46:48;34;;;34;;
86422;SDS011;77085;43.220;27.952;2024-03-08T00:47:08;34;;;34;;
86422;SDS011;77085;43.220;27.952;2024-03-08T00:47:27;35;;;35;;
86422;SDS011;77085;43.220;27.952;2024-03-08T00:47:47;33;;;33;;
86422;SDS011;77085;43.220;27.952;2024-03-08T00:48:06;35;;;35;;
86422;SDS011;77085;43.220;27.952;2024-03-08T00:48:26;33;;;33;;
86422;SDS011;77085;43.220;27.952;2024-03-08T00:48:46;33;;;33;;
86422;SDS011;77085;43.220;27.952;2024-03-08T00:49:05;33;;;33;;
86422;SDS011;77085;43.220;27.952;2024-03-08T00:49:24;34;;;34;;
86422;SDS011;77085;43.220;27.952;2024-03-08T00:49:44;32;;;32;;
86422;SDS011;77085;43.220;27.952;2024-03-08T00:50:04;31;;;31;;
86422;SDS011;77085;43.220;27.952;2024-03-08T00:50:23;33;;;33;;
86422;SDS011;77085;43.220;27.952;2024-03-08T00:50:43;32;;;32;;
86422;SDS011;77085;43.220;27.952;2024-03-08T00:51:02;32;;;32;;
86422;SDS011;77085;43.220;27.952;2024-03-08T00:51:22;32;;;32;;
86422;SDS011;77085;43.220;27.952;2024-03-08T00:51:41;34;;;34;;
86422;SDS011;77085;43.220;27.952;2024-03-08T00:52:01;34;;;34;;
86422;SDS011;77085;43.220;27.952;2024-03-08T00:52:20;33;;;33;;
86422;SDS011;77085;43.220;27.952;2024-03-08T00:52:39;32;;;32;;
86422;SDS011;77085;43.220;27.952;2024-03-08T00:52:59;33;;;33;;
86422;SDS011;77085;43.220;27.952;2024-03-08T00:53:18;31;;;31;;
86422;SDS011;77085;43.220;27.952;2024-03-08T00:53:38;33;;;33;;
86422;SDS011;77085;43.220;27.952;2024-03-08T00:53:57;33;;;33;;
86422;SDS011;77085;43.220;27.952;2024-03-08T00:54:16;34;;;34;;
86422;SDS011;77085;43.220;27.952;2024-03-08T00:54:36;35;;;35;;
86422;SDS011;77085;43.220;27.952;2024-03-08T00:54:55;34;;;34;;
86422;SDS011;77085;43.220;27.952;2024-03-08T00:55:15;32;;;32;;
86422;SDS011;77085;43.220;27.952;2024-03-08T00:55:34;32;;;32;;
86422;SDS011;77085;43.220;27.952;2024-03-08T00:55:54;32;;;32;;
86422;SDS011;77085;43.220;27.952;2024-03-08T00:56:13;34;;;34;;
86422;SDS011;77085;43.220;27.952;2024-03-08T00:56:32;31;;;31;;
86422;SDS011;77085;43.220;27.952;2024-03-08T00:56:52;33;;;33;;
86422;SDS011;77085;43.220;27.952;2024-03-08T00:57:11;34;;;34;;
86422;SDS011;77085;43.220;27.952;2024-03-08T00:57:31;32;;;32;;
86422;SDS011;77085;43.220;27.952;2024-03-08T00:57:50;33;;;33;;
86422;SDS011;77085;43.220;27.952;2024-03-08T00:58:09;33;;;33;;
86422;SDS011;77085;43.220;27.952;2024-03-08T00:58:29;32;;;32;;
86422;SDS011;77085;43.220;27.952;2024-03-08T00:58:48;32;;;32;;
86422;SDS011;77085;43.220;27.952;2024-03-08T00:59:09;34;;;34;;
86422;SDS011;77085;43.220;27.952;2024-03-08T00:59:28;33;;;33;;
86422;SDS011;77085;43.220;27.952;2024-03-08T00:59:48;32;;;32;;
86422;SDS011;77085;43.220;27.952;2024-03-08T01:00:09;32;;;32;;
86422;SDS011;77085;43.220;27.952;2024-03-08T01:00:28;34;;;34;;
86422;SDS011;77085;43.220;27.952;2024-03-08T01:00:48;34;;;34;;
86422;SDS011;77085;43.220;27.952;2024-03-08T01:01:07;34;;;34;;
86422;SDS011;77085;43.220;27.952;2024-03-08T01:01:27;34;;;34;;
86422;SDS011;77085;43.220;27.952;2024-03-08T01:01:46;34;;;34;;
86422;SDS011;77085;43.220;27.952;2024-03-08T01:02:06;33;;;33;;
86422;SDS011;77085;43.220;27.952;2024-03-08T01:02:25;32;;;32;;
86422;SDS011;77085;43.220;27.952;2024-03-08T01:02:44;32;;;32;;
86422;SDS011;77085;43.220;27.952;2024-03-08T01:03:04;33;;;33;;
86422;SDS011;77085;43.220;27.952;2024-03-08T01:03:23;33;;;33;;
86422;SDS011;77085;43.220;27.952;2024-03-08T01:03:44;33;;;33;;
86422;SDS011;77085;43.220;27.952;2024-03-08T01:04:04;34;;;34;;
86422;SDS011;77085;43.220;27.952;2024-03-08T01:04:23;34;;;34;;
86422;SDS011;77085;43.220;27.952;2024-03-08T01:04:42;33;;;33;;
86422;SDS011;77085;43.220;27.952;2024-03-08T01:05:02;34;;;34;;
86422;SDS011;77085;43.220;27.952;2024-03-08T01:05:21;33;;;33;;
86422;SDS011;77085;43.220;27.952;2024-03-08T01:05:41;33;;;33;;
86422;SDS011;77085;43.220;27.952;2024-03-08T01:06:00;32;;;32;;
86422;SDS011;77085;43.220;27.952;2024-03-08T01:06:20;32;;;32;;
86422;SDS011;77085;43.220;27.952;2024-03-08T01:06:39;33;;;33;;
86422;SDS011;77085;43.220;27.952;2024-03-08T01:06:59;32;;;32;;
86422;SDS011;77085;43.220;27.952;2024-03-08T01:07:19;31;;;31;;
86422;SDS011;77085;43.220;27.952;2024-03-08T01:07:38;32;;;32;;
86422;SDS011;77085;43.220;27.952;2024-03-08T01:07:58;31;;;31;;
86422;SDS011;77085;43.220;27.952;2024-03-08T01:08:17;34;;;34;;
86422;SDS011;77085;43.220;27.952;2024-03-08T01:08:36;32;;;32;;
86422;SDS011;77085;43.220;27.952;2024-03-08T01:08:56;31;;;31;;
86422;SDS011;77085;43.220;27.952;2024-03-08T01:09:15;32;;;32;;
86422;SDS011;77085;43.220;27.952;2024-03-08T01:09:35;32;;;32;;
86422;SDS011;77085;43.220;27.952;2024-03-08T01:09:54;33;;;33;;
86422;SDS011;77085;43.220;27.952;2024-03-08T01:10:14;34;;;34;;
86422;SDS011;77085;43.220;27.952;2024-03-08T01:10:33;32;;;32;;
86422;SDS011;77085;43.220;27.952;2024-03-08T01:10:53;32;;;32;;
86422;SDS011;77085;43.220;27.952;2024-03-08T01:11:15;31;;;31;;
86422;SDS011;77085;43.220;27.952;2024-03-08T01:11:35;31;;;31;;
86422;SDS011;77085;43.220;27.952;2024-03-08T01:11:55;31;;;31;;
86422;SDS011;77085;43.220;27.952;2024-03-08T01:12:14;32;;;32;;
86422;SDS011;77085;43.220;27.952;2024-03-08T01:12:34;33;;;33;;
86422;SDS011;77085;43.220;27.952;2024-03-08T01:12:54;32;;;32;;
86422;SDS011;77085;43.220;27.952;2024-03-08T01:13:13;33;;;33;;
86422;SDS011;77085;43.220;27.952;2024-03-08T01:13:32;32;;;32;;
86422;SDS011;77085;43.220;27.952;2024-03-08T01:13:52;32;;;32;;
86422;SDS011;77085;43.220;27.952;2024-03-08T01:14:11;34;;;34;;
86422;SDS011;77085;43.220;27.952;2024-03-08T01:14:31;33;;;33;;
86422;SDS011;77085;43.220;27.952;2024-03-08T01:14:51;32;;;32;;
86422;SDS011;77085;43.220;27.952;2024-03-08T01:15:11;32;;;32;;
86422;SDS011;77085;43.220;27.952;2024-03-08T01:15:30;30;;;30;;
86422;SDS011;77085;43.220;27.952;2024-03-08T01:15:49;32;;;32;;
86422;SDS011;77085;43.220;27.952;2024-03-08T01:16:09;30;;;30;;
86422;SDS011;77085;43.220;27.952;2024-03-08T01:16:28;30;;;30;;
86422;SDS011;77085;43.220;27.952;2024-03-08T01:16:48;32;;;32;;
86422;SDS011;77085;43.220;27.952;2024-03-08T01:17:07;32;;;32;;
86422;SDS011;77085;43.220;27.952;2024-03-08T01:17:27;33;;;33;;
86422;SDS011;77085;43.220;27.952;2024-03-08T01:17:46;33;;;33;;
86422;SDS011;77085;43.220;27.952;2024-03-08T01:18:06;32;;;32;;
86422;SDS011;77085;43.220;27.952;2024-03-08T01:18:25;32;;;32;;
86422;SDS011;77085;43.220;27.952;2024-03-08T01:18:45;31;;;31;;
86422;SDS011;77085;43.220;27.952;2024-03-08T01:19:05;32;;;32;;
86422;SDS011;77085;43.220;27.952;2024-03-08T01:19:24;33;;;33;;
86422;SDS011;77085;43.220;27.952;2024-03-08T01:19:44;33;;;33;;
86422;SDS011;77085;43.220;27.952;2024-03-08T01:20:04;33;;;33;;
86422;SDS011;77085;43.220;27.952;2024-03-08T01:20:23;33;;;33;;
86422;SDS011;77085;43.220;27.952;2024-03-08T01:20:43;32;;;32;;
86422;SDS011;77085;43.220;27.952;2024-03-08T01:21:02;32;;;32;;
86422;SDS011;77085;43.220;27.952;2024-03-08T01:21:22;31;;;31;;
86422;SDS011;77085;43.220;27.952;2024-03-08T01:21:42;31;;;31;;
86422;SDS011;77085;43.220;27.952;2024-03-08T01:22:01;32;;;32;;
86422;SDS011;77085;43.220;27.952;2024-03-08T01:22:21;32;;;32;;
86422;SDS011;77085;43.220;27.952;2024-03-08T01:22:40;32;;;32;;
86422;SDS011;77085;43.220;27.952;2024-03-08T01:22:59;32;;;32;;
86422;SDS011;77085;43.220;27.952;2024-03-08T01:23:19;33;;;33;;
86422;SDS011;77085;43.220;27.952;2024-03-08T01:23:38;33;;;33;;
86422;SDS011;77085;43.220;27.952;2024-03-08T01:23:58;32;;;32;;
86422;SDS011;77085;43.220;27.952;2024-03-08T01:24:17;32;;;32;;
86422;SDS011;77085;43.220;27.952;2024-03-08T01:24:36;31;;;31;;
86422;SDS011;77085;43.220;27.952;2024-03-08T01:24:56;30;;;30;;
86422;SDS011;77085;43.220;27.952;2024-03-08T01:25:15;32;;;32;;
86422;SDS011;77085;43.220;27.952;2024-03-08T01:25:35;32;;;32;;
86422;SDS011;77085;43.220;27.952;2024-03-08T01:25:55;31;;;31;;
86422;SDS011;77085;43.220;27.952;2024-03-08T01:26:14;31;;;31;;
86422;SDS011;77085;43.220;27.952;2024-03-08T01:26:34;32;;;32;;
86422;SDS011;77085;43.220;27.952;2024-03-08T01:26:53;31;;;31;;
86422;SDS011;77085;43.220;27.952;2024-03-08T01:27:13;32;;;32;;
86422;SDS011;77085;43.220;27.952;2024-03-08T01:27:32;34;;;34;;
86422;SDS011;77085;43.220;27.952;2024-03-08T01:27:52;33;;;33;;
86422;SDS011;77085;43.220;27.952;2024-03-08T01:28:11;31;;;31;;
86422;SDS011;77085;43.220;27.952;2024-03-08T01:28:32;31;;;31;;
86422;SDS011;77085;43.220;27.952;2024-03-08T01:28:51;31;;;31;;
86422;SDS011;77085;43.220;27.952;2024-03-08T01:29:11;31;;;31;;
86422;SDS011;77085;43.220;27.952;2024-03-08T01:29:30;30;;;30;;
86422;SDS011;77085;43.220;27.952;2024-03-08T01:29:49;32;;;32;;
86422;SDS011;77085;43.220;27.952;2024-03-08T01:30:09;32;;;32;;
86422;SDS011;77085;43.220;27.952;2024-03-08T01:30:29;32;;;32;;
86422;SDS011;77085;43.220;27.952;2024-03-08T01:30:48;31;;;31;;
86422;SDS011;77085;43.220;27.952;2024-03-08T01:31:08;32;;;32;;
86422;SDS011;77085;43.220;27.952;2024-03-08T01:31:27;33;;;33;;
86422;SDS011;77085;43.220;27.952;2024-03-08T01:31:46;32;;;32;;
86422;SDS011;77085;43.220;27.952;2024-03-08T01:32:06;33;;;33;;
86422;SDS011;77085;43.220;27.952;2024-03-08T01:32:26;34;;;34;;
86422;SDS011;77085;43.220;27.952;2024-03-08T01:32:45;35;;;35;;
86422;SDS011;77085;43.220;27.952;2024-03-08T01:33:05;33;;;33;;
86422;SDS011;77085;43.220;27.952;2024-03-08T01:33:26;33;;;33;;
86422;SDS011;77085;43.220;27.952;2024-03-08T01:33:46;31;;;31;;
86422;SDS011;77085;43.220;27.952;2024-03-08T01:34:05;31;;;31;;
86422;SDS011;77085;43.220;27.952;2024-03-08T01:34:25;31;;;31;;
86422;SDS011;77085;43.220;27.952;2024-03-08T01:34:44;31;;;31;;
86422;SDS011;77085;43.220;27.952;2024-03-08T01:35:05;30;;;30;;
86422;SDS011;77085;43.220;27.952;2024-03-08T01:35:25;32;;;32;;
86422;SDS011;77085;43.220;27.952;2024-03-08T01:35:44;30;;;30;;
86422;SDS011;77085;43.220;27.952;2024-03-08T01:36:04;30;;;30;;
86422;SDS011;77085;43.220;27.952;2024-03-08T01:36:23;32;;;32;;
86422;SDS011;77085;43.220;27.952;2024-03-08T01:36:43;33;;;33;;
86422;SDS011;77085;43.220;27.952;2024-03-08T01:37:02;32;;;32;;
86422;SDS011;77085;43.220;27.952;2024-03-08T01:37:21;33;;;33;;
86422;SDS011;77085;43.220;27.952;2024-03-08T01:37:41;34;;;34;;
86422;SDS011;77085;43.220;27.952;2024-03-08T01:38:00;32;;;32;;
86422;SDS011;77085;43.220;27.952;2024-03-08T01:38:20;32;;;32;;
86422;SDS011;77085;43.220;27.952;2024-03-08T01:38:39;32;;;32;;
86422;SDS011;77085;43.220;27.952;2024-03-08T01:38:59;31;;;31;;
86422;SDS011;77085;43.220;27.952;2024-03-08T01:39:18;30;;;30;;
86422;SDS011;77085;43.220;27.952;2024-03-08T01:39:38;33;;;33;;
86422;SDS011;77085;43.220;27.952;2024-03-08T01:39:57;32;;;32;;
86422;SDS011;77085;43.220;27.952;2024-03-08T01:40:17;32;;;32;;
86422;SDS011;77085;43.220;27.952;2024-03-08T01:40:36;32;;;32;;
86422;SDS011;77085;43.220;27.952;2024-03-08T01:40:55;31;;;31;;
86422;SDS011;77085;43.220;27.952;2024-03-08T01:41:15;32;;;32;;
86422;SDS011;77085;43.220;27.952;2024-03-08T01:41:34;32;;;32;;
86422;SDS011;77085;43.220;27.952;2024-03-08T01:41:54;32;;;32;;
86422;SDS011;77085;43.220;27.952;2024-03-08T01:42:13;31;;;31;;
86422;SDS011;77085;43.220;27.952;2024-03-08T01:42:32;30;;;30;;
86422;SDS011;77085;43.220;27.952;2024-03-08T01:42:52;32;;;32;;
86422;SDS011;77085;43.220;27.952;2024-03-08T01:43:19;34;;;34;;
86422;SDS011;77085;43.220;27.952;2024-03-08T01:43:38;32;;;32;;
86422;SDS011;77085;43.220;27.952;2024-03-08T01:43:57;31;;;31;;
86422;SDS011;77085;43.220;27.952;2024-03-08T01:44:17;32;;;32;;
86422;SDS011;77085;43.220;27.952;2024-03-08T01:44:36;33;;;33;;
86422;SDS011;77085;43.220;27.952;2024-03-08T01:44:56;32;;;32;;
86422;SDS011;77085;43.220;27.952;2024-03-08T01:45:16;32;;;32;;
86422;SDS011;77085;43.220;27.952;2024-03-08T01:45:35;31;;;31;;
86422;SDS011;77085;43.220;27.952;2024-03-08T01:45:55;31;;;31;;
86422;SDS011;77085;43.220;27.952;2024-03-08T01:46:19;31;;;31;;
86422;SDS011;77085;43.220;27.952;2024-03-08T01:46:38;32;;;32;;
86422;SDS011;77085;43.220;27.952;2024-03-08T01:46:58;32;;;32;;
86422;SDS011;77085;43.220;27.952;2024-03-08T01:47:18;32;;;32;;
86422;SDS011;77085;43.220;27.952;2024-03-08T01:47:37;32;;;32;;
86422;SDS011;77085;43.220;27.952;2024-03-08T01:47:57;32;;;32;;
86422;SDS011;77085;43.220;27.952;2024-03-08T01:48:17;31;;;31;;
86422;SDS011;77085;43.220;27.952;2024-03-08T01:48:37;31;;;31;;
86422;SDS011;77085;43.220;27.952;2024-03-08T01:48:57;31;;;31;;
86422;SDS011;77085;43.220;27.952;2024-03-08T01:49:17;32;;;32;;
86422;SDS011;77085;43.220;27.952;2024-03-08T01:49:37;31;;;31;;
86422;SDS011;77085;43.220;27.952;2024-03-08T01:49:57;31;;;31;;
86422;SDS011;77085;43.220;27.952;2024-03-08T01:50:16;31;;;31;;
86422;SDS011;77085;43.220;27.952;2024-03-08T01:50:35;33;;;33;;
86422;SDS011;77085;43.220;27.952;2024-03-08T01:50:55;32;;;32;;
86422;SDS011;77085;43.220;27.952;2024-03-08T01:51:15;30;;;30;;
86422;SDS011;77085;43.220;27.952;2024-03-08T01:51:34;31;;;31;;
86422;SDS011;77085;43.220;27.952;2024-03-08T01:51:54;31;;;31;;
86422;SDS011;77085;43.220;27.952;2024-03-08T01:52:14;32;;;32;;
86422;SDS011;77085;43.220;27.952;2024-03-08T01:52:33;31;;;31;;
86422;SDS011;77085;43.220;27.952;2024-03-08T01:52:53;30;;;30;;
86422;SDS011;77085;43.220;27.952;2024-03-08T01:53:12;32;;;32;;
86422;SDS011;77085;43.220;27.952;2024-03-08T01:53:32;32;;;32;;
86422;SDS011;77085;43.220;27.952;2024-03-08T01:53:52;32;;;32;;
86422;SDS011;77085;43.220;27.952;2024-03-08T01:54:12;32;;;32;;
86422;SDS011;77085;43.220;27.952;2024-03-08T01:54:33;32;;;32;;
86422;SDS011;77085;43.220;27.952;2024-03-08T01:54:53;30;;;30;;
86422;SDS011;77085;43.220;27.952;2024-03-08T01:55:13;32;;;32;;
86422;SDS011;77085;43.220;27.952;2024-03-08T01:55:32;33;;;33;;
86422;SDS011;77085;43.220;27.952;2024-03-08T01:55:52;32;;;32;;
86422;SDS011;77085;43.220;27.952;2024-03-08T01:56:13;32;;;32;;
86422;SDS011;77085;43.220;27.952;2024-03-08T01:56:32;33;;;33;;
86422;SDS011;77085;43.220;27.952;2024-03-08T01:56:52;32;;;32;;
86422;SDS011;77085;43.220;27.952;2024-03-08T01:57:11;32;;;32;;
86422;SDS011;77085;43.220;27.952;2024-03-08T01:57:33;31;;;31;;
86422;SDS011;77085;43.220;27.952;2024-03-08T01:57:53;30;;;30;;
86422;SDS011;77085;43.220;27.952;2024-03-08T01:58:12;30;;;30;;
86422;SDS011;77085;43.220;27.952;2024-03-08T01:58:32;31;;;31;;
86422;SDS011;77085;43.220;27.952;2024-03-08T01:58:53;31;;;31;;
86422;SDS011;77085;43.220;27.952;2024-03-08T01:59:13;31;;;31;;
86422;SDS011;77085;43.220;27.952;2024-03-08T01:59:33;30;;;30;;
86422;SDS011;77085;43.220;27.952;2024-03-08T01:59:53;30;;;30;;
86422;SDS011;77085;43.220;27.952;2024-03-08T02:00:13;30;;;30;;
86422;SDS011;77085;43.220;27.952;2024-03-08T02:00:33;30;;;30;;
86422;SDS011;77085;43.220;27.952;2024-03-08T02:00:56;30;;;30;;
86422;SDS011;77085;43.220;27.952;2024-03-08T02:01:16;29;;;29;;
86422;SDS011;77085;43.220;27.952;2024-03-08T02:01:36;30;;;30;;
86422;SDS011;77085;43.220;27.952;2024-03-08T02:01:59;33;;;33;;
86422;SDS011;77085;43.220;27.952;2024-03-08T02:02:20;31;;;31;;
86422;SDS011;77085;43.220;27.952;2024-03-08T02:02:39;29;;;29;;
86422;SDS011;77085;43.220;27.952;2024-03-08T02:03:01;32;;;32;;
86422;SDS011;77085;43.220;27.952;2024-03-08T02:03:21;33;;;33;;
86422;SDS011;77085;43.220;27.952;2024-03-08T02:03:41;30;;;30;;
86422;SDS011;77085;43.220;27.952;2024-03-08T02:04:00;30;;;30;;